createdAt,value
2023-08-02T00:00:00.599Z,84.4
2023-08-02T00:01:00.610Z,84.8
2023-08-02T00:02:00.591Z,84.4
2023-08-02T00:03:00.565Z,85.1
2023-08-02T00:04:10.502Z,84.4
2023-08-02T00:05:00.591Z,85.1
2023-08-02T00:06:00.618Z,85.1
2023-08-02T00:07:00.592Z,85.1
2023-08-02T00:08:00.541Z,85
2023-08-02T00:09:00.538Z,84.7
2023-08-02T00:10:00.576Z,84.4
2023-08-02T00:11:00.535Z,84.4
2023-08-02T00:12:00.545Z,84.4
2023-08-02T00:13:00.551Z,84.4
2023-08-02T00:14:00.543Z,84.7
2023-08-02T00:15:00.544Z,84.7
2023-08-02T00:16:00.561Z,84.4
2023-08-02T00:17:00.569Z,85.1
2023-08-02T00:18:00.611Z,85
2023-08-02T00:19:00.552Z,85
2023-08-02T00:20:00.595Z,85
2023-08-02T00:21:00.565Z,85
2023-08-02T00:22:00.581Z,85
2023-08-02T00:23:00.564Z,85
2023-08-02T00:24:00.562Z,85
2023-08-02T00:25:00.638Z,85
2023-08-02T00:26:00.547Z,85
2023-08-02T00:27:00.571Z,84.7
2023-08-02T00:28:00.557Z,85
2023-08-02T00:29:00.601Z,85
2023-08-02T00:30:00.589Z,85
2023-08-02T00:31:00.634Z,85
2023-08-02T00:32:00.576Z,85
2023-08-02T00:33:00.636Z,85
2023-08-02T00:34:00.568Z,85
2023-08-02T00:35:00.567Z,85
2023-08-02T00:36:00.595Z,85
2023-08-02T00:37:00.561Z,85
2023-08-02T00:38:00.561Z,85
2023-08-02T00:39:00.587Z,85
2023-08-02T00:40:00.585Z,85
2023-08-02T00:41:00.561Z,85
2023-08-02T00:42:00.565Z,85
2023-08-02T00:43:00.585Z,85
2023-08-02T00:44:00.619Z,85
2023-08-02T00:45:00.574Z,85
2023-08-02T00:46:00.640Z,85
2023-08-02T00:47:00.743Z,84.4
2023-08-02T00:48:00.579Z,85
2023-08-02T00:49:00.722Z,84.7
2023-08-02T00:50:00.648Z,84.7
2023-08-02T00:51:00.581Z,85
2023-08-02T00:52:00.578Z,85
2023-08-02T00:53:00.589Z,85
2023-08-02T00:54:00.613Z,85
2023-08-02T00:55:00.588Z,85
2023-08-02T00:56:00.580Z,85
2023-08-02T00:57:00.595Z,85
2023-08-02T00:58:00.587Z,84.6
2023-08-02T00:59:00.581Z,84.4
2023-08-02T01:00:00.646Z,84
2023-08-02T01:01:00.606Z,84.4
2023-08-02T01:02:00.692Z,84.3
2023-08-02T01:03:00.655Z,84.3
2023-08-02T01:04:00.601Z,84.3
2023-08-02T01:05:00.602Z,84.6
2023-08-02T01:06:00.640Z,85
2023-08-02T01:07:00.690Z,84.3
2023-08-02T01:08:00.595Z,84.4
2023-08-02T01:09:07.916Z,84.3
2023-08-02T01:10:00.606Z,84.3
2023-08-02T01:11:00.610Z,84.3
2023-08-02T01:12:00.595Z,84.6
2023-08-02T01:13:00.611Z,84.6
2023-08-02T01:14:00.597Z,84.6
2023-08-02T01:15:00.602Z,84.9
2023-08-02T01:16:00.625Z,84.6
2023-08-02T01:17:00.620Z,84.6
2023-08-02T01:18:00.620Z,84.9
2023-08-02T01:19:00.646Z,84.6
2023-08-02T01:20:00.620Z,84.9
2023-08-02T01:21:00.608Z,84.9
2023-08-02T01:22:00.640Z,84.9
2023-08-02T01:23:00.677Z,84.9
2023-08-02T01:24:00.617Z,84.9
2023-08-02T01:25:00.670Z,84.6
2023-08-02T01:26:00.614Z,84.9
2023-08-02T01:27:00.636Z,84.9
2023-08-02T01:28:00.617Z,84.9
2023-08-02T01:29:00.635Z,84.6
2023-08-02T01:30:00.635Z,84.6
2023-08-02T01:31:00.666Z,84.6
2023-08-02T01:32:00.618Z,84.3
2023-08-02T01:33:00.645Z,84.6
2023-08-02T01:34:00.652Z,84.6
2023-08-02T01:35:00.631Z,84.9
2023-08-02T01:36:00.635Z,84.9
2023-08-02T01:37:00.636Z,84.9
2023-08-02T01:38:00.627Z,84.9
2023-08-02T01:39:00.633Z,84.9
2023-08-02T01:40:00.637Z,84.9
2023-08-02T01:41:00.640Z,84.9
2023-08-02T01:42:00.627Z,84.9
2023-08-02T01:43:00.636Z,84.9
2023-08-02T01:44:00.664Z,84.9
2023-08-02T01:45:00.665Z,84.9
2023-08-02T01:46:00.680Z,84.9
2023-08-02T01:47:00.632Z,84.9
2023-08-02T01:48:00.712Z,85.2
2023-08-02T01:49:00.636Z,84.9
2023-08-02T01:50:00.657Z,85.2
2023-08-02T01:51:00.643Z,84.9
2023-08-02T01:52:00.643Z,84.9
2023-08-02T01:53:00.662Z,85.2
2023-08-02T01:54:00.645Z,85.5
2023-08-02T01:55:00.645Z,85.5
2023-08-02T01:56:00.642Z,85.8
2023-08-02T01:57:00.646Z,86.2
2023-08-02T01:58:00.644Z,86.2
2023-08-02T01:59:00.646Z,86.2
2023-08-02T02:00:01.168Z,85.8
2023-08-02T02:01:01.125Z,85.5
2023-08-02T02:02:01.122Z,85.5
2023-08-02T02:03:01.140Z,85.5
2023-08-02T02:04:01.078Z,86.2
2023-08-02T02:05:01.139Z,86.2
2023-08-02T02:06:01.109Z,85.8
2023-08-02T02:07:01.112Z,85.5
2023-08-02T02:08:01.104Z,85.5
2023-08-02T02:09:01.110Z,85.2
2023-08-02T02:10:01.103Z,84.9
2023-08-02T02:11:01.095Z,85.2
2023-08-02T02:12:01.094Z,84.9
2023-08-02T02:13:01.116Z,84.9
2023-08-02T02:14:01.100Z,84.9
2023-08-02T02:15:01.097Z,85.5
2023-08-02T02:16:01.131Z,85.5
2023-08-02T02:17:01.103Z,86.2
2023-08-02T02:18:01.117Z,86.2
2023-08-02T02:19:01.094Z,86.5
2023-08-02T02:20:01.154Z,86.5
2023-08-02T02:21:01.093Z,86.5
2023-08-02T02:22:01.167Z,86.8
2023-08-02T02:23:01.124Z,86.8
2023-08-02T02:24:01.140Z,87.1
2023-08-02T02:25:01.128Z,87.4
2023-08-02T02:26:01.118Z,87.4
2023-08-02T02:27:01.131Z,87.5
2023-08-02T02:28:01.103Z,87.4
2023-08-02T02:29:01.123Z,86.8
2023-08-02T02:30:01.142Z,86.5
2023-08-02T02:31:01.107Z,87.2
2023-08-02T02:32:01.143Z,87.5
2023-08-02T02:33:01.231Z,87.5
2023-08-02T02:34:01.120Z,87.5
2023-08-02T02:35:01.135Z,86.9
2023-08-02T02:36:01.133Z,87.5
2023-08-02T02:37:01.115Z,87.5
2023-08-02T02:38:01.117Z,87.8
2023-08-02T02:39:01.134Z,87.5
2023-08-02T02:40:01.133Z,87.5
2023-08-02T02:41:01.146Z,87.5
2023-08-02T02:42:01.151Z,87.5
2023-08-02T02:43:01.122Z,87.5
2023-08-02T02:44:01.506Z,87.5
2023-08-02T02:45:01.155Z,86.9
2023-08-02T02:46:01.126Z,86.9
2023-08-02T02:47:01.300Z,87.5
2023-08-02T02:48:01.237Z,87.2
2023-08-02T02:49:01.132Z,87.5
2023-08-02T02:50:01.140Z,86.9
2023-08-02T02:51:01.133Z,86.9
2023-08-02T02:52:01.147Z,87.2
2023-08-02T02:53:01.129Z,86.9
2023-08-02T02:54:01.137Z,86.6
2023-08-02T02:55:01.152Z,86.3
2023-08-02T02:56:01.133Z,86.3
2023-08-02T02:57:01.832Z,86.3
2023-08-02T02:58:01.164Z,86.9
2023-08-02T02:59:01.138Z,87.6
2023-08-02T03:00:01.333Z,86.9
2023-08-02T03:01:01.241Z,86.9
2023-08-02T03:02:01.164Z,86.3
2023-08-02T03:03:01.187Z,86.3
2023-08-02T03:04:01.168Z,86.6
2023-08-02T03:05:01.180Z,86
2023-08-02T03:06:01.213Z,86.3
2023-08-02T03:07:01.154Z,86.6
2023-08-02T03:08:01.158Z,87
2023-08-02T03:09:01.149Z,87.3
2023-08-02T03:10:01.321Z,87
2023-08-02T03:11:01.164Z,86.4
2023-08-02T03:12:01.189Z,86
2023-08-02T03:13:01.149Z,86.3
2023-08-02T03:14:01.149Z,86
2023-08-02T03:15:01.153Z,86
2023-08-02T03:16:01.158Z,85.7
2023-08-02T03:17:01.221Z,85.7
2023-08-02T03:18:01.188Z,85.4
2023-08-02T03:19:01.181Z,85.7
2023-08-02T03:20:01.237Z,85.7
2023-08-02T03:21:01.164Z,85.7
2023-08-02T03:22:01.455Z,85.7
2023-08-02T03:23:01.211Z,85.7
2023-08-02T03:24:01.179Z,85.7
2023-08-02T03:25:01.202Z,85.1
2023-08-02T03:26:01.171Z,85.1
2023-08-02T03:27:01.198Z,85.5
2023-08-02T03:28:01.168Z,85.1
2023-08-02T03:29:01.166Z,85.1
2023-08-02T03:30:01.172Z,84.8
2023-08-02T03:31:01.236Z,85.1
2023-08-02T03:32:01.201Z,85.5
2023-08-02T03:33:01.208Z,85.1
2023-08-02T03:34:01.173Z,85.1
2023-08-02T03:35:01.487Z,85.8
2023-08-02T03:36:01.176Z,85.8
2023-08-02T03:37:01.194Z,86.4
2023-08-02T03:38:01.176Z,85.8
2023-08-02T03:39:01.181Z,85.8
2023-08-02T03:40:01.209Z,86.4
2023-08-02T03:41:01.181Z,86.4
2023-08-02T03:42:01.931Z,85.8
2023-08-02T03:43:01.198Z,85.8
2023-08-02T03:44:01.178Z,85.5
2023-08-02T03:45:01.182Z,85.5
2023-08-02T03:46:01.831Z,85.5
2023-08-02T03:47:01.182Z,85.5
2023-08-02T03:48:01.241Z,85.8
2023-08-02T03:49:01.194Z,85.8
2023-08-02T03:50:01.221Z,85.5
2023-08-02T03:51:01.204Z,85.5
2023-08-02T03:52:01.264Z,85.8
2023-08-02T03:53:01.199Z,85.8
2023-08-02T03:54:01.232Z,85.8
2023-08-02T03:55:01.193Z,85.8
2023-08-02T03:56:01.194Z,85.8
2023-08-02T03:57:01.304Z,85.8
2023-08-02T03:58:01.188Z,85.8
2023-08-02T03:59:01.197Z,86.1
2023-08-02T04:00:01.511Z,86.4
2023-08-02T04:01:01.205Z,85.8
2023-08-02T04:02:01.268Z,85.8
2023-08-02T04:03:01.243Z,85.5
2023-08-02T04:04:02.803Z,85.8
2023-08-02T04:05:01.216Z,86.2
2023-08-02T04:06:01.321Z,86.1
2023-08-02T04:07:01.210Z,85.8
2023-08-02T04:08:01.239Z,85.8
2023-08-02T04:09:01.230Z,85.8
2023-08-02T04:10:01.384Z,85.2
2023-08-02T04:11:01.222Z,85.2
2023-08-02T04:12:01.207Z,85.2
2023-08-02T04:13:01.214Z,85.2
2023-08-02T04:14:01.250Z,84.6
2023-08-02T04:15:01.244Z,85.2
2023-08-02T04:16:01.244Z,85.2
2023-08-02T04:17:01.235Z,85.2
2023-08-02T04:18:01.253Z,84.9
2023-08-02T04:19:01.263Z,84.9
2023-08-02T04:20:01.278Z,85.2
2023-08-02T04:21:01.281Z,85.2
2023-08-02T04:22:01.234Z,85.5
2023-08-02T04:23:01.233Z,85.9
2023-08-02T04:24:01.235Z,85.6
2023-08-02T04:25:01.261Z,85.2
2023-08-02T04:26:01.248Z,85.2
2023-08-02T04:27:01.259Z,84.9
2023-08-02T04:28:01.229Z,84.6
2023-08-02T04:29:01.230Z,85.2
2023-08-02T04:30:01.985Z,85.3
2023-08-02T04:31:01.257Z,85.2
2023-08-02T04:32:01.317Z,85.2
2023-08-02T04:33:01.372Z,85.3
2023-08-02T04:34:01.237Z,85.3
2023-08-02T04:35:01.240Z,85.3
2023-08-02T04:36:01.261Z,85.2
2023-08-02T04:37:01.246Z,84.6
2023-08-02T04:38:01.263Z,84.6
2023-08-02T04:39:01.252Z,84.6
2023-08-02T04:40:01.291Z,85.3
2023-08-02T04:41:01.261Z,85.3
2023-08-02T04:42:01.268Z,84.9
2023-08-02T04:43:01.296Z,85
2023-08-02T04:44:01.256Z,84.6
2023-08-02T04:45:01.268Z,85.3
2023-08-02T04:46:01.263Z,85.3
2023-08-02T04:47:01.248Z,85.3
2023-08-02T04:48:01.367Z,85.3
2023-08-02T04:49:01.293Z,85.3
2023-08-02T04:50:01.280Z,85.3
2023-08-02T04:51:01.269Z,85
2023-08-02T04:52:01.283Z,84.6
2023-08-02T04:53:01.784Z,85
2023-08-02T04:54:01.275Z,84.7
2023-08-02T04:55:01.258Z,84.7
2023-08-02T04:56:01.263Z,85.3
2023-08-02T04:57:01.277Z,84.7
2023-08-02T04:58:01.261Z,85.3
2023-08-02T04:59:02.695Z,85.3
2023-08-02T05:00:01.348Z,85.3
2023-08-02T05:01:01.309Z,85
2023-08-02T05:02:01.348Z,85.3
2023-08-02T05:03:01.327Z,85
2023-08-02T05:04:01.352Z,84.7
2023-08-02T05:05:01.282Z,85.3
2023-08-02T05:06:01.365Z,85.6
2023-08-02T05:07:00.541Z,85.3
2023-08-02T05:08:00.611Z,84.7
2023-08-02T05:09:00.554Z,85.3
2023-08-02T05:10:00.576Z,85
2023-08-02T05:11:00.540Z,84.7
2023-08-02T05:12:00.554Z,85.7
2023-08-02T05:13:00.552Z,85.4
2023-08-02T05:14:00.570Z,85.4
2023-08-02T05:15:00.542Z,85.4
2023-08-02T05:16:00.577Z,85.3
2023-08-02T05:17:01.509Z,85
2023-08-02T05:18:00.646Z,84.7
2023-08-02T05:19:00.573Z,85
2023-08-02T05:20:00.657Z,84.7
2023-08-02T05:21:00.571Z,84.7
2023-08-02T05:22:00.574Z,83.8
2023-08-02T05:23:00.572Z,84.4
2023-08-02T05:24:00.618Z,84.7
2023-08-02T05:25:00.583Z,84.7
2023-08-02T05:26:00.566Z,83.5
2023-08-02T05:27:00.586Z,84.4
2023-08-02T05:28:00.585Z,84.1
2023-08-02T05:29:00.662Z,84.1
2023-08-02T05:30:00.699Z,84.5
2023-08-02T05:31:00.629Z,84.1
2023-08-02T05:32:00.700Z,84.1
2023-08-02T05:33:00.643Z,84.1
2023-08-02T05:34:00.588Z,84.4
2023-08-02T05:35:00.604Z,84.1
2023-08-02T05:36:00.968Z,84.1
2023-08-02T05:37:00.624Z,83.8
2023-08-02T05:38:03.299Z,84.1
2023-08-02T05:39:00.593Z,84.1
2023-08-02T05:40:00.649Z,84.1
2023-08-02T05:41:00.614Z,83.5
2023-08-02T05:42:00.742Z,83.8
2023-08-02T05:43:00.626Z,83.5
2023-08-02T05:44:00.657Z,83.2
2023-08-02T05:45:00.589Z,82.9
2023-08-02T05:46:00.670Z,83.2
2023-08-02T05:47:00.581Z,82.9
2023-08-02T05:48:00.592Z,83.2
2023-08-02T05:49:00.583Z,82.9
2023-08-02T05:50:00.601Z,83.2
2023-08-02T05:51:00.587Z,82.9
2023-08-02T05:52:00.597Z,82.9
2023-08-02T05:53:00.626Z,82.3
2023-08-02T05:54:00.588Z,83.2
2023-08-02T05:55:00.597Z,83.9
2023-08-02T05:56:00.594Z,83.6
2023-08-02T05:57:00.603Z,83.6
2023-08-02T05:58:00.847Z,83.6
2023-08-02T05:59:00.685Z,82.9
2023-08-02T06:00:03.494Z,82.9
2023-08-02T06:01:00.764Z,83.3
2023-08-02T06:02:00.627Z,82.9
2023-08-02T06:03:00.738Z,82.9
2023-08-02T06:04:00.838Z,82.9
2023-08-02T06:05:00.958Z,82.9
2023-08-02T06:06:00.675Z,82.6
2023-08-02T06:07:00.615Z,82.3
2023-08-02T06:08:04.007Z,81.7
2023-08-02T06:09:00.631Z,82.9
2023-08-02T06:10:00.744Z,83.3
2023-08-02T06:11:00.802Z,83.2
2023-08-02T06:12:00.627Z,83.6
2023-08-02T06:13:00.666Z,83.2
2023-08-02T06:14:00.629Z,83.2
2023-08-02T06:15:00.648Z,82.9
2023-08-02T06:16:00.768Z,82.9
2023-08-02T06:17:00.681Z,82.6
2023-08-02T06:18:00.667Z,83.3
2023-08-02T06:19:00.917Z,83.2
2023-08-02T06:20:01.136Z,82.6
2023-08-02T06:21:00.726Z,83.6
2023-08-02T06:22:01.058Z,83.2
2023-08-02T06:23:00.623Z,83.2
2023-08-02T06:24:02.459Z,83.6
2023-08-02T06:25:00.693Z,83.6
2023-08-02T06:26:00.658Z,83.9
2023-08-02T06:27:00.629Z,83.9
2023-08-02T06:28:00.656Z,84.2
2023-08-02T06:29:00.756Z,84.2
2023-08-02T06:30:01.289Z,84.2
2023-08-02T06:33:00.882Z,83.9
2023-08-02T06:34:00.574Z,84.2
2023-08-02T06:35:00.614Z,84.2
2023-08-02T06:36:00.560Z,84.2
2023-08-02T06:37:00.595Z,84.2
2023-08-02T06:38:00.589Z,83.9
2023-08-02T06:39:00.583Z,84.2
2023-08-02T06:40:00.627Z,84.2
2023-08-02T06:41:00.640Z,84.2
2023-08-02T06:42:00.586Z,84.3
2023-08-02T06:43:00.585Z,83.9
2023-08-02T06:44:00.618Z,83.9
2023-08-02T06:45:00.578Z,84.2
2023-08-02T06:46:00.606Z,83.6
2023-08-02T06:47:00.612Z,84
2023-08-02T06:48:00.611Z,84.3
2023-08-02T06:49:00.584Z,84.2
2023-08-02T06:50:00.657Z,84.6
2023-08-02T06:51:00.590Z,84.3
2023-08-02T06:52:00.600Z,84.3
2023-08-02T06:53:00.593Z,84.3
2023-08-02T06:54:00.600Z,84.6
2023-08-02T06:55:00.640Z,84.3
2023-08-02T06:56:00.621Z,84.6
2023-08-02T06:57:00.601Z,84.9
2023-08-02T06:58:00.583Z,84.6
2023-08-02T06:59:00.586Z,84.9
2023-08-02T07:00:00.879Z,84.9
2023-08-02T07:01:00.651Z,84.9
2023-08-02T07:02:00.602Z,84.6
2023-08-02T07:03:00.620Z,84.3
2023-08-02T07:04:00.680Z,84.6
2023-08-02T07:05:00.598Z,84.3
2023-08-02T07:06:00.613Z,84.3
2023-08-02T07:07:00.615Z,84.6
2023-08-02T07:08:00.597Z,84.9
2023-08-02T07:09:00.589Z,84.3
2023-08-02T07:10:01.513Z,84.3
2023-08-02T07:11:00.613Z,84.2
2023-08-02T07:12:00.611Z,84.3
2023-08-02T07:13:00.605Z,84.6
2023-08-02T07:14:00.604Z,84.3
2023-08-02T07:15:00.606Z,84.9
2023-08-02T07:16:00.600Z,84.9
2023-08-02T07:17:00.714Z,85.2
2023-08-02T07:18:00.762Z,85.2
2023-08-02T07:19:00.630Z,85.2
2023-08-02T07:20:00.686Z,85.5
2023-08-02T07:21:00.657Z,84.9
2023-08-02T07:22:00.605Z,85.2
2023-08-02T07:23:00.633Z,85.2
2023-08-02T07:24:00.632Z,85.2
2023-08-02T07:25:00.609Z,85.5
2023-08-02T07:26:00.616Z,85.5
2023-08-02T07:27:00.612Z,85.5
2023-08-02T07:28:00.620Z,85.5
2023-08-02T07:29:00.613Z,85.5
2023-08-02T07:30:00.651Z,85.6
2023-08-02T07:31:00.685Z,85.2
2023-08-02T07:32:00.639Z,85.2
2023-08-02T07:33:00.687Z,85.5
2023-08-02T07:34:00.638Z,85.6
2023-08-02T07:35:00.623Z,85.5
2023-08-02T07:36:00.647Z,85.6
2023-08-02T07:37:00.635Z,85.2
2023-08-02T07:38:00.674Z,84.9
2023-08-02T07:39:00.620Z,84.9
2023-08-02T07:40:00.667Z,84.9
2023-08-02T07:41:00.665Z,85.6
2023-08-02T07:42:00.687Z,84.3
2023-08-02T07:43:00.701Z,84.9
2023-08-02T07:44:00.636Z,84.9
2023-08-02T07:45:00.630Z,84.6
2023-08-02T07:46:00.692Z,84.9
2023-08-02T07:47:00.676Z,84.9
2023-08-02T07:48:00.703Z,84.3
2023-08-02T07:49:00.649Z,84.9
2023-08-02T07:50:00.634Z,84.9
2023-08-02T07:51:00.636Z,84.9
2023-08-02T07:52:00.680Z,84.9
2023-08-02T07:53:00.699Z,84.9
2023-08-02T07:54:00.665Z,85.2
2023-08-02T07:55:00.646Z,84.9
2023-08-02T07:56:00.644Z,84.9
2023-08-02T07:57:00.659Z,84.9
2023-08-02T07:58:00.693Z,85
2023-08-02T07:59:03.232Z,84.6
2023-08-02T08:00:00.658Z,85
2023-08-02T08:01:00.638Z,85
2023-08-02T08:02:00.673Z,84.3
2023-08-02T08:03:00.707Z,84.3
2023-08-02T08:04:00.657Z,84.3
2023-08-02T08:05:00.688Z,84.3
2023-08-02T08:06:00.670Z,84.3
2023-08-02T08:07:00.661Z,85
2023-08-02T08:08:00.664Z,84.7
2023-08-02T08:09:00.648Z,84.4
2023-08-02T08:10:00.680Z,84.3
2023-08-02T08:11:00.659Z,84.4
2023-08-02T08:12:00.681Z,85
2023-08-02T08:13:00.663Z,84.4
2023-08-02T08:14:00.673Z,84.7
2023-08-02T08:15:00.661Z,83.8
2023-08-02T08:16:00.673Z,83.8
2023-08-02T08:17:01.684Z,84.1
2023-08-02T08:18:00.690Z,84.4
2023-08-02T08:19:00.661Z,84.4
2023-08-02T08:20:00.670Z,84.7
2023-08-02T08:21:00.667Z,84.1
2023-08-02T08:22:00.659Z,84.4
2023-08-02T08:23:00.720Z,84.2
2023-08-02T08:24:00.676Z,83.8
2023-08-02T08:25:01.516Z,83.9
2023-08-02T08:26:00.691Z,83.5
2023-08-02T08:27:00.681Z,83.9
2023-08-02T08:28:00.691Z,83.3
2023-08-02T08:29:00.670Z,83.6
2023-08-02T08:30:00.734Z,83.3
2023-08-02T08:31:02.672Z,83.3
2023-08-02T08:32:00.731Z,82.4
2023-08-02T08:33:00.866Z,82.7
2023-08-02T08:34:00.723Z,82.8
2023-08-02T08:35:00.677Z,81.5
2023-08-02T08:36:00.814Z,81.2
2023-08-02T08:37:00.706Z,81.2
2023-08-02T08:38:00.677Z,80.9
2023-08-02T08:39:00.679Z,80.3
2023-08-02T08:40:14.406Z,80.3
2023-08-02T08:41:00.703Z,80
2023-08-02T08:42:00.722Z,79.7
2023-08-02T08:43:00.686Z,79
2023-08-02T08:44:02.338Z,79
2023-08-02T08:45:00.693Z,79.4
2023-08-02T08:46:00.738Z,79
2023-08-02T08:47:00.868Z,78.4
2023-08-02T08:48:00.766Z,78.7
2023-08-02T08:49:00.721Z,79.4
2023-08-02T08:50:00.739Z,79.1
2023-08-02T08:51:00.694Z,79.4
2023-08-02T08:52:00.692Z,79.1
2023-08-02T08:53:00.694Z,79.1
2023-08-02T08:54:01.273Z,78.4
2023-08-02T08:55:00.698Z,78.4
2023-08-02T08:56:00.698Z,78.4
2023-08-02T08:57:00.714Z,79.1
2023-08-02T08:58:05.210Z,78.7
2023-08-02T08:59:00.697Z,78.4
2023-08-02T09:00:00.704Z,78.4
2023-08-02T09:01:00.709Z,78.4
2023-08-02T09:02:00.761Z,77.8
2023-08-02T09:03:00.765Z,78.4
2023-08-02T09:04:00.799Z,78.4
2023-08-02T09:05:00.709Z,79.1
2023-08-02T09:06:00.802Z,78.8
2023-08-02T09:07:00.723Z,78.8
2023-08-02T09:08:00.751Z,79.8
2023-08-02T09:09:00.725Z,79.1
2023-08-02T09:10:02.824Z,79.1
2023-08-02T09:11:00.711Z,77.9
2023-08-02T09:12:00.779Z,77.9
2023-08-02T09:13:00.722Z,77.6
2023-08-02T09:14:00.724Z,77.3
2023-08-02T09:15:00.714Z,77.3
2023-08-02T09:16:00.788Z,76.6
2023-08-02T09:17:00.733Z,76.6
2023-08-02T09:18:00.777Z,76.3
2023-08-02T09:19:00.732Z,76.7
2023-08-02T09:20:00.855Z,76.6
2023-08-02T09:21:00.738Z,76.7
2023-08-02T09:22:00.726Z,77
2023-08-02T09:23:00.729Z,75.4
2023-08-02T09:24:00.732Z,76.7
2023-08-02T09:25:00.803Z,76.7
2023-08-02T09:26:00.747Z,76.7
2023-08-02T09:27:00.734Z,77.4
2023-08-02T09:28:00.748Z,76.4
2023-08-02T09:29:00.836Z,75.5
2023-08-02T09:30:00.757Z,73.9
2023-08-02T09:31:00.738Z,75.8
2023-08-02T09:32:00.798Z,75.5
2023-08-02T09:33:00.816Z,75.8
2023-08-02T09:34:00.744Z,76.1
2023-08-02T09:35:00.744Z,74.2
2023-08-02T09:36:00.755Z,74.9
2023-08-02T09:37:00.745Z,76.2
2023-08-02T09:38:00.741Z,75.5
2023-08-02T09:39:00.740Z,75.2
2023-08-02T09:40:00.986Z,73.6
2023-08-02T09:41:39.531Z,74.3
2023-08-02T09:42:04.019Z,75.6
2023-08-02T09:43:00.751Z,74.9
2023-08-02T09:44:00.759Z,73
2023-08-02T09:45:00.754Z,73
2023-08-02T09:46:00.791Z,74
2023-08-02T09:47:00.749Z,74.3
2023-08-02T09:48:00.814Z,72.4
2023-08-02T09:49:00.767Z,71.8
2023-08-02T09:50:00.884Z,72.4
2023-08-02T09:51:00.754Z,71.8
2023-08-02T09:52:00.757Z,71.8
2023-08-02T09:53:00.758Z,71.1
2023-08-02T09:54:00.769Z,71.8
2023-08-02T09:55:00.758Z,70.5
2023-08-02T09:56:00.771Z,71.5
2023-08-02T09:57:00.772Z,71.1
2023-08-02T09:58:01.280Z,71.1
2023-08-02T09:59:01.160Z,71.8
2023-08-02T10:00:00.774Z,71.1
2023-08-02T10:01:00.800Z,72.8
2023-08-02T10:02:00.772Z,72.8
2023-08-02T10:03:12.031Z,73.1
2023-08-02T10:04:00.792Z,72.5
2023-08-02T10:05:00.815Z,71.2
2023-08-02T10:06:00.891Z,71.2
2023-08-02T10:07:00.771Z,70.5
2023-08-02T10:08:00.776Z,70.9
2023-08-02T10:09:00.841Z,70.6
2023-08-02T10:10:00.778Z,70.9
2023-08-02T10:11:00.817Z,71.2
2023-08-02T10:12:00.837Z,71.2
2023-08-02T10:13:00.790Z,70.6
2023-08-02T10:14:00.793Z,70
2023-08-02T10:15:00.782Z,69.6
2023-08-02T10:16:00.830Z,70.6
2023-08-02T10:17:00.797Z,71.3
2023-08-02T10:18:00.807Z,70.3
2023-08-02T10:19:00.788Z,69.3
2023-08-02T10:20:00.857Z,70
2023-08-02T10:21:00.813Z,68.7
2023-08-02T10:22:00.795Z,68.7
2023-08-02T10:23:00.801Z,68.7
2023-08-02T10:24:00.810Z,69.3
2023-08-02T10:25:00.794Z,68.7
2023-08-02T10:26:02.227Z,69.3
2023-08-02T10:27:00.825Z,70
2023-08-02T10:28:00.800Z,70.3
2023-08-02T10:29:00.822Z,70
2023-08-02T10:30:00.798Z,69.1
2023-08-02T10:31:00.806Z,69.4
2023-08-02T10:32:00.806Z,68.8
2023-08-02T10:33:00.890Z,67.5
2023-08-02T10:34:00.819Z,66.2
2023-08-02T10:35:00.797Z,66.3
2023-08-02T10:36:00.849Z,66.9
2023-08-02T10:37:00.808Z,66.3
2023-08-02T10:38:00.825Z,65.6
2023-08-02T10:39:01.050Z,65
2023-08-02T10:40:00.846Z,65.3
2023-08-02T10:41:00.814Z,65.9
2023-08-02T10:42:00.832Z,65.6
2023-08-02T10:43:00.814Z,65.6
2023-08-02T10:44:00.832Z,65.6
2023-08-02T10:45:00.860Z,65.3
2023-08-02T10:46:00.814Z,65
2023-08-02T10:47:00.846Z,65.3
2023-08-02T10:48:00.872Z,64
2023-08-02T10:49:00.833Z,65.7
2023-08-02T10:50:00.837Z,63.4
2023-08-02T10:51:00.844Z,63.1
2023-08-02T10:52:00.824Z,64.3
2023-08-02T10:53:00.832Z,65
2023-08-02T10:54:00.826Z,64.3
2023-08-02T10:55:00.821Z,64.4
2023-08-02T10:56:00.822Z,63.7
2023-08-02T10:57:00.834Z,64.4
2023-08-02T10:58:00.827Z,65
2023-08-02T10:59:00.830Z,64.4
2023-08-02T11:00:00.844Z,64.1
2023-08-02T11:01:00.967Z,63.8
2023-08-02T11:02:00.884Z,63.2
2023-08-02T11:03:00.844Z,61.5
2023-08-02T11:04:00.917Z,62.2
2023-08-02T11:05:00.883Z,63.2
2023-08-02T11:06:00.853Z,62.2
2023-08-02T11:07:00.867Z,62.2
2023-08-02T11:08:00.800Z,63.2
2023-08-02T11:09:00.767Z,61.9
2023-08-02T11:10:00.722Z,59.9
2023-08-02T11:11:00.706Z,61.2
2023-08-02T11:12:00.658Z,61.2
2023-08-02T11:13:02.488Z,61.9
2023-08-02T11:14:00.633Z,61.6
2023-08-02T11:15:00.569Z,63.2
2023-08-02T11:16:00.615Z,61.9
2023-08-02T11:18:00.597Z,61.3
2023-08-02T11:19:00.644Z,61.9
2023-08-02T11:21:00.413Z,61
2023-08-02T11:22:00.408Z,60.3
2023-08-02T11:23:00.445Z,60.6
2023-08-02T11:24:01.868Z,60.3
2023-08-02T11:25:00.416Z,60.3
2023-08-02T11:27:00.733Z,61
2023-08-02T11:28:00.418Z,61
2023-08-02T11:29:00.427Z,62.3
2023-08-02T11:30:00.464Z,60.7
2023-08-02T11:32:00.425Z,59.7
2023-08-02T11:33:00.485Z,59.4
2023-08-02T11:34:00.458Z,59.4
2023-08-02T11:35:00.454Z,59.7
2023-08-02T11:36:00.423Z,60.7
2023-08-02T11:37:00.425Z,61.4
2023-08-02T11:38:00.444Z,60.4
2023-08-02T11:39:00.462Z,58.2
2023-08-02T11:40:19.977Z,59.5
2023-08-02T11:41:00.484Z,58.8
2023-08-02T11:42:00.643Z,59.5
2023-08-02T11:43:05.704Z,60.1
2023-08-02T11:44:00.440Z,58.9
2023-08-02T11:45:14.884Z,58.2
2023-08-02T11:46:00.473Z,59.2
2023-08-02T11:47:00.439Z,58.9
2023-08-02T11:48:09.318Z,59.5
2023-08-02T11:49:00.436Z,58.9
2023-08-02T11:50:00.436Z,58.9
2023-08-02T11:51:02.794Z,56.9
2023-08-02T11:52:00.453Z,57.5
2023-08-02T11:53:00.496Z,56.9
2023-08-02T11:54:00.441Z,56.9
2023-08-02T11:55:00.477Z,57.5
2023-08-02T11:56:02.016Z,58.2
2023-08-02T11:57:02.311Z,57.2
2023-08-02T11:58:00.488Z,56.9
2023-08-02T11:59:00.450Z,55.6
2023-08-02T12:00:00.500Z,54
2023-08-02T12:01:00.448Z,54
2023-08-02T12:02:00.520Z,52.7
2023-08-02T12:03:00.582Z,54
2023-08-02T12:04:00.510Z,54.3
2023-08-02T12:05:00.462Z,55
2023-08-02T12:06:00.604Z,54.3
2023-08-02T12:07:00.462Z,54
2023-08-02T12:08:00.459Z,54.7
2023-08-02T12:09:03.045Z,54.4
2023-08-02T12:10:00.489Z,54.4
2023-08-02T12:11:00.494Z,52.4
2023-08-02T12:12:00.464Z,53.7
2023-08-02T12:13:00.477Z,53.1
2023-08-02T12:14:00.476Z,53.1
2023-08-02T12:15:00.468Z,54.4
2023-08-02T12:16:00.586Z,54
2023-08-02T12:17:00.568Z,55.7
2023-08-02T12:18:00.576Z,53.7
2023-08-02T12:19:00.466Z,55
2023-08-02T12:20:00.463Z,53.7
2023-08-02T12:21:00.474Z,54.7
2023-08-02T12:22:00.473Z,53.7
2023-08-02T12:23:00.478Z,54.7
2023-08-02T12:24:00.481Z,53.4
2023-08-02T12:25:00.482Z,54.3
2023-08-02T12:26:00.480Z,54
2023-08-02T12:27:00.474Z,55
2023-08-02T12:28:00.473Z,55
2023-08-02T12:29:00.479Z,55.4
2023-08-02T12:30:00.499Z,55.7
2023-08-02T12:31:00.543Z,53.1
2023-08-02T12:32:00.553Z,53.4
2023-08-02T12:33:00.563Z,53.1
2023-08-02T12:34:00.480Z,54.1
2023-08-02T12:35:11.093Z,53.5
2023-08-02T12:36:00.481Z,53.8
2023-08-02T12:37:00.493Z,53.9
2023-08-02T12:38:01.846Z,53.9
2023-08-02T12:39:00.542Z,53.9
2023-08-02T12:40:00.501Z,51
2023-08-02T12:41:00.487Z,49.4
2023-08-02T12:42:00.496Z,49.4
2023-08-02T12:43:03.621Z,49.1
2023-08-02T12:44:04.362Z,47.4
2023-08-02T12:45:15.306Z,48.1
2023-08-02T12:46:00.523Z,48.1
2023-08-02T12:47:00.493Z,48.5
2023-08-02T12:48:00.558Z,49.5
2023-08-02T12:49:00.515Z,47.5
2023-08-02T12:50:00.515Z,47.2
2023-08-02T12:51:00.519Z,47.5
2023-08-02T12:52:00.534Z,47.8
2023-08-02T12:53:00.505Z,46.5
2023-08-02T12:54:00.576Z,46.2
2023-08-02T12:55:00.514Z,45.5
2023-08-02T12:56:00.502Z,46.2
2023-08-02T12:57:00.521Z,46.2
2023-08-02T12:58:00.521Z,46.8
2023-08-02T12:59:00.516Z,46.5
2023-08-02T13:00:00.878Z,46.2
2023-08-02T13:01:00.517Z,47.8
2023-08-02T13:02:00.756Z,46.2
2023-08-02T13:03:00.577Z,45.9
2023-08-02T13:04:00.773Z,47.5
2023-08-02T13:05:00.530Z,46.8
2023-08-02T13:06:00.528Z,45.9
2023-08-02T13:07:00.880Z,47.2
2023-08-02T13:08:00.592Z,47.2
2023-08-02T13:09:00.579Z,46.2
2023-08-02T13:10:00.541Z,46.8
2023-08-02T13:11:00.539Z,48.1
2023-08-02T13:12:07.847Z,45.9
2023-08-02T13:13:00.521Z,46.8
2023-08-02T13:14:00.534Z,46.5
2023-08-02T13:15:00.583Z,45.5
2023-08-02T13:16:00.602Z,47.5
2023-08-02T13:17:00.565Z,45.5
2023-08-02T13:18:00.646Z,44.8
2023-08-02T13:19:00.535Z,45.2
2023-08-02T13:20:00.611Z,46.5
2023-08-02T13:21:00.651Z,47.1
2023-08-02T13:22:00.528Z,46.5
2023-08-02T13:23:00.542Z,44.8
2023-08-02T13:24:00.546Z,47.1
2023-08-02T13:25:00.599Z,48.8
2023-08-02T13:26:00.553Z,47.1
2023-08-02T13:27:00.542Z,46.1
2023-08-02T13:28:00.555Z,46.1
2023-08-02T13:29:00.556Z,46.1
2023-08-02T13:30:00.600Z,45.5